sensor_id;sensor_type;location;lat;lon;timestamp;pressure;altitude;pressure_sealevel;temperature;humidity
73974;BME280;62336;-26.094;27.994;2023-04-01T00:01:23;85044.50;;;25.85;24.96
73974;BME280;62336;-26.094;27.994;2023-04-01T00:03:49;85045.48;;;25.21;25.17
73974;BME280;62336;-26.094;27.994;2023-04-01T00:06:17;85043.18;;;25.15;24.74
73974;BME280;62336;-26.094;27.994;2023-04-01T00:08:41;85036.61;;;25.30;24.88
73974;BME280;62336;-26.094;27.994;2023-04-01T00:11:06;85044.91;;;25.90;24.29
73974;BME280;62336;-26.094;27.994;2023-04-01T00:13:32;85044.56;;;25.67;24.61
73974;BME280;62336;-26.094;27.994;2023-04-01T00:15:58;85042.93;;;25.60;24.40
73974;BME280;62336;-26.094;27.994;2023-04-01T00:18:24;85048.39;;;25.51;24.51
73974;BME280;62336;-26.094;27.994;2023-04-01T00:20:50;85047.77;;;25.30;24.67
73974;BME280;62336;-26.094;27.994;2023-04-01T00:23:15;85048.43;;;25.19;24.79
73974;BME280;62336;-26.094;27.994;2023-04-01T00:25:40;85052.88;;;25.32;24.92
73974;BME280;62336;-26.094;27.994;2023-04-01T00:28:05;85051.17;;;24.79;24.86
73974;BME280;62336;-26.094;27.994;2023-04-01T00:30:31;85053.66;;;25.10;25.04
73974;BME280;62336;-26.094;27.994;2023-04-01T00:32:56;85057.13;;;24.89;24.83
73974;BME280;62336;-26.094;27.994;2023-04-01T00:35:21;85057.35;;;25.79;24.33
73974;BME280;62336;-26.094;27.994;2023-04-01T00:37:47;85053.93;;;25.13;24.78
73974;BME280;62336;-26.094;27.994;2023-04-01T00:42:37;85049.49;;;24.91;24.74
73974;BME280;62336;-26.094;27.994;2023-04-01T00:47:29;85054.42;;;24.78;25.39
73974;BME280;62336;-26.094;27.994;2023-04-01T00:49:55;85052.64;;;24.99;24.88
73974;BME280;62336;-26.094;27.994;2023-04-01T00:52:23;85049.71;;;24.79;24.74
73974;BME280;62336;-26.094;27.994;2023-04-01T00:54:49;85052.86;;;24.87;24.91
73974;BME280;62336;-26.094;27.994;2023-04-01T00:57:15;85057.29;;;24.92;24.70
73974;BME280;62336;-26.094;27.994;2023-04-01T00:59:40;85062.17;;;24.68;24.75
73974;BME280;62336;-26.094;27.994;2023-04-01T01:02:04;85060.86;;;24.80;25.13
73974;BME280;62336;-26.094;27.994;2023-04-01T01:04:30;85058.43;;;24.67;25.23
73974;BME280;62336;-26.094;27.994;2023-04-01T01:07:01;85058.91;;;24.66;25.36
73974;BME280;62336;-26.094;27.994;2023-04-01T01:09:27;85054.50;;;25.16;25.11
73974;BME280;62336;-26.094;27.994;2023-04-01T01:11:49;85056.63;;;25.26;25.29
73974;BME280;62336;-26.094;27.994;2023-04-01T01:14:18;85055.87;;;24.62;24.81
73974;BME280;62336;-26.094;27.994;2023-04-01T01:16:38;85053.44;;;24.85;25.24
73974;BME280;62336;-26.094;27.994;2023-04-01T01:19:07;85052.39;;;25.05;25.07
73974;BME280;62336;-26.094;27.994;2023-04-01T01:28:50;85049.63;;;24.99;24.99
73974;BME280;62336;-26.094;27.994;2023-04-01T01:31:14;85051.77;;;25.11;25.15
73974;BME280;62336;-26.094;27.994;2023-04-01T01:33:42;85048.68;;;24.48;25.65
73974;BME280;62336;-26.094;27.994;2023-04-01T01:35:59;85043.40;;;24.44;25.67
73974;BME280;62336;-26.094;27.994;2023-04-01T01:38:26;85038.72;;;24.74;25.81
73974;BME280;62336;-26.094;27.994;2023-04-01T01:40:50;85035.49;;;24.36;26.23
73974;BME280;62336;-26.094;27.994;2023-04-01T01:43:16;85029.56;;;24.29;25.63
73974;BME280;62336;-26.094;27.994;2023-04-01T01:45:43;85024.35;;;24.73;25.34
73974;BME280;62336;-26.094;27.994;2023-04-01T01:48:05;85027.67;;;24.46;25.87
73974;BME280;62336;-26.094;27.994;2023-04-01T01:50:31;85024.08;;;24.74;25.76
73974;BME280;62336;-26.094;27.994;2023-04-01T01:53:04;85022.36;;;25.35;24.52
73974;BME280;62336;-26.094;27.994;2023-04-01T01:55:28;85021.28;;;24.78;25.07
73974;BME280;62336;-26.094;27.994;2023-04-01T01:57:47;85018.09;;;24.47;25.44
73974;BME280;62336;-26.094;27.994;2023-04-01T02:00:14;85012.70;;;24.56;25.73
73974;BME280;62336;-26.094;27.994;2023-04-01T02:02:39;85015.87;;;25.27;25.23
73974;BME280;62336;-26.094;27.994;2023-04-01T02:05:05;85012.70;;;25.16;25.36
73974;BME280;62336;-26.094;27.994;2023-04-01T02:07:33;85013.50;;;25.13;25.40
73974;BME280;62336;-26.094;27.994;2023-04-01T02:09:56;85012.65;;;25.11;24.99
73974;BME280;62336;-26.094;27.994;2023-04-01T02:12:22;85015.90;;;25.14;25.07
73974;BME280;62336;-26.094;27.994;2023-04-01T02:14:52;85019.26;;;25.69;24.57
73974;BME280;62336;-26.094;27.994;2023-04-01T02:17:14;85019.33;;;24.27;25.38
73974;BME280;62336;-26.094;27.994;2023-04-01T02:19:41;85023.72;;;25.16;25.28
73974;BME280;62336;-26.094;27.994;2023-04-01T02:22:08;85026.40;;;25.11;25.54
73974;BME280;62336;-26.094;27.994;2023-04-01T02:24:31;85026.90;;;25.34;24.95
73974;BME280;62336;-26.094;27.994;2023-04-01T02:26:54;85027.16;;;25.10;24.73
73974;BME280;62336;-26.094;27.994;2023-04-01T02:29:21;85032.95;;;25.09;25.05
73974;BME280;62336;-26.094;27.994;2023-04-01T02:31:45;85034.54;;;25.14;24.89
73974;BME280;62336;-26.094;27.994;2023-04-01T02:34:10;85032.08;;;25.26;25.07
73974;BME280;62336;-26.094;27.994;2023-04-01T02:36:36;85034.79;;;25.43;25.01
73974;BME280;62336;-26.094;27.994;2023-04-01T02:39:02;85037.08;;;25.55;24.84
73974;BME280;62336;-26.094;27.994;2023-04-01T02:41:28;85042.45;;;25.35;25.05
73974;BME280;62336;-26.094;27.994;2023-04-01T02:43:53;85044.93;;;25.27;25.01
73974;BME280;62336;-26.094;27.994;2023-04-01T02:46:19;85048.63;;;24.85;25.44
73974;BME280;62336;-26.094;27.994;2023-04-01T02:48:44;85049.92;;;24.83;25.32
73974;BME280;62336;-26.094;27.994;2023-04-01T02:51:10;85052.00;;;24.82;25.53
73974;BME280;62336;-26.094;27.994;2023-04-01T02:53:35;85051.51;;;25.08;25.56
73974;BME280;62336;-26.094;27.994;2023-04-01T02:56:01;85052.21;;;25.21;25.25
73974;BME280;62336;-26.094;27.994;2023-04-01T02:58:27;85051.53;;;24.89;25.24
73974;BME280;62336;-26.094;27.994;2023-04-01T03:00:53;85048.51;;;25.52;25.14
73974;BME280;62336;-26.094;27.994;2023-04-01T03:03:19;85052.08;;;24.94;25.22
73974;BME280;62336;-26.094;27.994;2023-04-01T03:05:44;85052.86;;;25.05;25.32
73974;BME280;62336;-26.094;27.994;2023-04-01T03:08:10;85052.67;;;24.87;25.25
73974;BME280;62336;-26.094;27.994;2023-04-01T03:10:36;85051.73;;;25.08;25.34
73974;BME280;62336;-26.094;27.994;2023-04-01T03:13:02;85050.18;;;24.69;25.23
73974;BME280;62336;-26.094;27.994;2023-04-01T03:15:28;85053.27;;;24.95;25.09
73974;BME280;62336;-26.094;27.994;2023-04-01T03:17:53;85060.74;;;24.86;24.83
73974;BME280;62336;-26.094;27.994;2023-04-01T03:20:19;85061.67;;;24.73;25.12
73974;BME280;62336;-26.094;27.994;2023-04-01T03:22:45;85060.11;;;24.69;25.53
73974;BME280;62336;-26.094;27.994;2023-04-01T03:25:11;85065.57;;;24.30;25.38
73974;BME280;62336;-26.094;27.994;2023-04-01T03:27:36;85073.30;;;24.61;25.08
73974;BME280;62336;-26.094;27.994;2023-04-01T03:30:03;85075.13;;;25.08;24.75
73974;BME280;62336;-26.094;27.994;2023-04-01T03:32:27;85078.55;;;24.77;24.95
73974;BME280;62336;-26.094;27.994;2023-04-01T03:34:53;85081.50;;;24.66;25.25
73974;BME280;62336;-26.094;27.994;2023-04-01T03:37:19;85085.08;;;24.79;24.83
73974;BME280;62336;-26.094;27.994;2023-04-01T03:39:45;85086.38;;;24.55;25.22
73974;BME280;62336;-26.094;27.994;2023-04-01T03:42:11;85088.65;;;24.75;24.78
73974;BME280;62336;-26.094;27.994;2023-04-01T03:44:37;85095.55;;;24.97;24.44
73974;BME280;62336;-26.094;27.994;2023-04-01T03:47:03;85098.91;;;25.09;24.13
73974;BME280;62336;-26.094;27.994;2023-04-01T03:49:28;85103.05;;;24.21;24.67
73974;BME280;62336;-26.094;27.994;2023-04-01T03:51:54;85104.28;;;24.68;24.64
73974;BME280;62336;-26.094;27.994;2023-04-01T03:54:20;85106.70;;;24.28;25.12
73974;BME280;62336;-26.094;27.994;2023-04-01T03:56:46;85107.87;;;24.03;25.19
73974;BME280;62336;-26.094;27.994;2023-04-01T03:59:12;85108.38;;;24.66;24.89
73974;BME280;62336;-26.094;27.994;2023-04-01T04:01:37;85110.30;;;24.64;24.98
73974;BME280;62336;-26.094;27.994;2023-04-01T04:04:02;85106.50;;;24.81;24.88
73974;BME280;62336;-26.094;27.994;2023-04-01T04:06:28;85109.28;;;24.84;24.77
73974;BME280;62336;-26.094;27.994;2023-04-01T04:08:54;85109.89;;;24.14;24.72
73974;BME280;62336;-26.094;27.994;2023-04-01T04:11:20;85114.51;;;24.46;24.48
73974;BME280;62336;-26.094;27.994;2023-04-01T04:13:45;85113.95;;;24.81;24.35
73974;BME280;62336;-26.094;27.994;2023-04-01T04:16:11;85118.57;;;24.91;24.19
73974;BME280;62336;-26.094;27.994;2023-04-01T04:18:37;85119.23;;;24.77;24.52
73974;BME280;62336;-26.094;27.994;2023-04-01T04:21:03;85120.25;;;24.56;24.72
73974;BME280;62336;-26.094;27.994;2023-04-01T04:23:28;85124.02;;;24.29;25.03
73974;BME280;62336;-26.094;27.994;2023-04-01T04:25:56;85131.16;;;24.05;25.22
73974;BME280;62336;-26.094;27.994;2023-04-01T04:28:20;85129.41;;;24.65;24.76
73974;BME280;62336;-26.094;27.994;2023-04-01T04:30:45;85127.79;;;24.34;24.68
73974;BME280;62336;-26.094;27.994;2023-04-01T04:33:14;85129.10;;;24.14;24.95
73974;BME280;62336;-26.094;27.994;2023-04-01T04:35:37;85131.73;;;24.60;24.66
73974;BME280;62336;-26.094;27.994;2023-04-01T04:38:03;85137.65;;;24.77;24.27
73974;BME280;62336;-26.094;27.994;2023-04-01T04:40:29;85141.34;;;24.05;24.94
73974;BME280;62336;-26.094;27.994;2023-04-01T04:42:54;85144.79;;;23.99;24.90
73974;BME280;62336;-26.094;27.994;2023-04-01T04:45:20;85150.17;;;24.58;25.00
73974;BME280;62336;-26.094;27.994;2023-04-01T04:47:45;85147.91;;;24.50;24.98
73974;BME280;62336;-26.094;27.994;2023-04-01T04:50:11;85152.46;;;24.17;25.32
73974;BME280;62336;-26.094;27.994;2023-04-01T04:52:37;85155.76;;;24.23;25.38
73974;BME280;62336;-26.094;27.994;2023-04-01T04:55:04;85154.47;;;24.89;25.27
73974;BME280;62336;-26.094;27.994;2023-04-01T04:57:29;85153.43;;;24.35;25.28
73974;BME280;62336;-26.094;27.994;2023-04-01T04:59:54;85152.35;;;24.77;25.18
73974;BME280;62336;-26.094;27.994;2023-04-01T05:02:19;85155.14;;;24.70;25.03
73974;BME280;62336;-26.094;27.994;2023-04-01T05:04:45;85158.62;;;24.70;25.18
73974;BME280;62336;-26.094;27.994;2023-04-01T05:07:10;85161.37;;;24.67;25.40
73974;BME280;62336;-26.094;27.994;2023-04-01T05:09:35;85163.00;;;24.18;25.45
73974;BME280;62336;-26.094;27.994;2023-04-01T05:12:01;85170.59;;;24.09;25.89
73974;BME280;62336;-26.094;27.994;2023-04-01T05:14:26;85172.49;;;24.78;25.71
73974;BME280;62336;-26.094;27.994;2023-04-01T05:16:52;85176.43;;;25.30;25.26
73974;BME280;62336;-26.094;27.994;2023-04-01T05:19:17;85175.72;;;25.35;25.18
73974;BME280;62336;-26.094;27.994;2023-04-01T05:21:42;85175.40;;;25.24;24.86
73974;BME280;62336;-26.094;27.994;2023-04-01T05:24:08;85180.44;;;25.54;24.69
73974;BME280;62336;-26.094;27.994;2023-04-01T05:26:33;85183.58;;;25.39;25.23
73974;BME280;62336;-26.094;27.994;2023-04-01T05:29:00;85184.89;;;25.77;24.86
73974;BME280;62336;-26.094;27.994;2023-04-01T05:31:24;85185.06;;;25.43;25.32
73974;BME280;62336;-26.094;27.994;2023-04-01T05:33:50;85188.90;;;25.42;25.20
73974;BME280;62336;-26.094;27.994;2023-04-01T05:36:16;85193.18;;;25.83;25.22
73974;BME280;62336;-26.094;27.994;2023-04-01T05:38:42;85192.36;;;26.08;24.56
73974;BME280;62336;-26.094;27.994;2023-04-01T05:41:07;85197.01;;;26.45;24.76
73974;BME280;62336;-26.094;27.994;2023-04-01T05:43:36;85196.24;;;26.27;24.65
73974;BME280;62336;-26.094;27.994;2023-04-01T05:45:59;85199.56;;;26.63;24.68
73974;BME280;62336;-26.094;27.994;2023-04-01T05:48:24;85201.57;;;27.03;24.20
73974;BME280;62336;-26.094;27.994;2023-04-01T05:50:50;85206.66;;;27.38;24.56
73974;BME280;62336;-26.094;27.994;2023-04-01T05:53:16;85210.93;;;27.45;24.28
73974;BME280;62336;-26.094;27.994;2023-04-01T05:55:42;85215.69;;;28.01;23.78
73974;BME280;62336;-26.094;27.994;2023-04-01T05:58:07;85218.89;;;27.58;23.84
73974;BME280;62336;-26.094;27.994;2023-04-01T06:00:33;85221.10;;;27.73;23.88
73974;BME280;62336;-26.094;27.994;2023-04-01T06:03:00;85222.73;;;27.50;23.93
73974;BME280;62336;-26.094;27.994;2023-04-01T06:05:27;85222.85;;;27.76;23.91
73974;BME280;62336;-26.094;27.994;2023-04-01T06:07:51;85218.85;;;27.42;24.00
73974;BME280;62336;-26.094;27.994;2023-04-01T06:10:18;85216.80;;;27.72;23.21
73974;BME280;62336;-26.094;27.994;2023-04-01T06:12:56;85218.01;;;27.94;23.67
73974;BME280;62336;-26.094;27.994;2023-04-01T06:15:17;85222.72;;;28.33;23.35
73974;BME280;62336;-26.094;27.994;2023-04-01T06:17:46;85227.83;;;27.39;24.00
73974;BME280;62336;-26.094;27.994;2023-04-01T06:20:04;85229.18;;;27.92;22.94
73974;BME280;62336;-26.094;27.994;2023-04-01T06:22:35;85231.26;;;27.42;24.00
73974;BME280;62336;-26.094;27.994;2023-04-01T06:25:00;85231.97;;;27.47;24.03
73974;BME280;62336;-26.094;27.994;2023-04-01T06:27:24;85236.90;;;28.14;23.39
73974;BME280;62336;-26.094;27.994;2023-04-01T06:29:52;85240.44;;;28.34;23.41
73974;BME280;62336;-26.094;27.994;2023-04-01T06:32:20;85237.42;;;28.05;23.20
73974;BME280;62336;-26.094;27.994;2023-04-01T06:34:42;85237.74;;;28.23;23.18
73974;BME280;62336;-26.094;27.994;2023-04-01T06:37:12;85238.55;;;28.62;23.12
73974;BME280;62336;-26.094;27.994;2023-04-01T06:39:35;85240.97;;;28.38;22.99
73974;BME280;62336;-26.094;27.994;2023-04-01T06:42:07;85245.53;;;28.23;23.26
73974;BME280;62336;-26.094;27.994;2023-04-01T06:44:20;85249.10;;;28.29;23.13
73974;BME280;62336;-26.094;27.994;2023-04-01T06:46:45;85250.60;;;28.33;23.15
73974;BME280;62336;-26.094;27.994;2023-04-01T06:49:24;85248.65;;;28.77;22.09
73974;BME280;62336;-26.094;27.994;2023-04-01T06:51:41;85250.91;;;28.65;22.33
73974;BME280;62336;-26.094;27.994;2023-04-01T06:54:04;85252.63;;;28.81;22.11
73974;BME280;62336;-26.094;27.994;2023-04-01T06:56:27;85255.92;;;28.72;22.52
73974;BME280;62336;-26.094;27.994;2023-04-01T06:58:54;85261.00;;;28.76;22.59
73974;BME280;62336;-26.094;27.994;2023-04-01T07:01:22;85264.70;;;28.91;22.76
73974;BME280;62336;-26.094;27.994;2023-04-01T07:03:44;85265.72;;;28.92;22.78
73974;BME280;62336;-26.094;27.994;2023-04-01T07:06:13;85265.46;;;29.75;22.33
73974;BME280;62336;-26.094;27.994;2023-04-01T07:08:38;85265.59;;;29.16;22.18
73974;BME280;62336;-26.094;27.994;2023-04-01T07:11:02;85266.74;;;29.11;22.40
73974;BME280;62336;-26.094;27.994;2023-04-01T07:13:30;85263.33;;;29.34;22.54
73974;BME280;62336;-26.094;27.994;2023-04-01T07:15:59;85264.09;;;29.37;21.99
73974;BME280;62336;-26.094;27.994;2023-04-01T07:18:21;85259.25;;;28.83;22.16
73974;BME280;62336;-26.094;27.994;2023-04-01T07:20:43;85264.34;;;29.57;21.61
73974;BME280;62336;-26.094;27.994;2023-04-01T07:23:16;85261.60;;;29.22;21.54
73974;BME280;62336;-26.094;27.994;2023-04-01T07:25:36;85263.58;;;30.06;21.49
73974;BME280;62336;-26.094;27.994;2023-04-01T07:28:03;85261.83;;;30.35;21.06
73974;BME280;62336;-26.094;27.994;2023-04-01T07:30:28;85263.03;;;30.47;21.16
73974;BME280;62336;-26.094;27.994;2023-04-01T07:32:55;85264.22;;;30.94;20.80
73974;BME280;62336;-26.094;27.994;2023-04-01T07:35:22;85266.93;;;31.10;20.89
73974;BME280;62336;-26.094;27.994;2023-04-01T07:37:50;85268.79;;;30.88;21.12
73974;BME280;62336;-26.094;27.994;2023-04-01T07:40:18;85266.09;;;30.65;20.71
73974;BME280;62336;-26.094;27.994;2023-04-01T07:42:40;85263.05;;;30.90;21.17
73974;BME280;62336;-26.094;27.994;2023-04-01T07:45:04;85265.98;;;31.50;20.83
73974;BME280;62336;-26.094;27.994;2023-04-01T07:47:34;85265.26;;;31.43;20.96
73974;BME280;62336;-26.094;27.994;2023-04-01T07:49:59;85266.88;;;30.77;20.83
73974;BME280;62336;-26.094;27.994;2023-04-01T07:52:19;85263.17;;;31.00;21.33
73974;BME280;62336;-26.094;27.994;2023-04-01T07:54:46;85260.53;;;31.28;20.97
73974;BME280;62336;-26.094;27.994;2023-04-01T07:57:11;85265.91;;;31.47;20.84
73974;BME280;62336;-26.094;27.994;2023-04-01T07:59:37;85262.51;;;31.33;20.64
73974;BME280;62336;-26.094;27.994;2023-04-01T08:02:03;85266.40;;;31.51;21.32
73974;BME280;62336;-26.094;27.994;2023-04-01T08:04:33;85259.07;;;31.61;20.51
73974;BME280;62336;-26.094;27.994;2023-04-01T08:06:52;85258.50;;;31.31;20.69
73974;BME280;62336;-26.094;27.994;2023-04-01T08:09:20;85259.44;;;31.41;21.25
73974;BME280;62336;-26.094;27.994;2023-04-01T08:11:51;85254.93;;;31.72;20.70
73974;BME280;62336;-26.094;27.994;2023-04-01T08:14:11;85252.57;;;31.50;20.64
73974;BME280;62336;-26.094;27.994;2023-04-01T08:16:37;85251.82;;;31.95;20.39
73974;BME280;62336;-26.094;27.994;2023-04-01T08:19:03;85248.90;;;31.62;20.53
73974;BME280;62336;-26.094;27.994;2023-04-01T08:21:24;85247.99;;;31.92;20.43
73974;BME280;62336;-26.094;27.994;2023-04-01T08:23:49;85246.70;;;31.98;20.34
73974;BME280;62336;-26.094;27.994;2023-04-01T08:26:17;85243.21;;;32.08;20.06
73974;BME280;62336;-26.094;27.994;2023-04-01T08:28:41;85243.84;;;32.27;19.99
73974;BME280;62336;-26.094;27.994;2023-04-01T08:31:07;85238.17;;;31.95;19.95
73974;BME280;62336;-26.094;27.994;2023-04-01T08:33:29;85233.88;;;32.16;20.08
73974;BME280;62336;-26.094;27.994;2023-04-01T08:35:59;85226.10;;;32.13;20.03
73974;BME280;62336;-26.094;27.994;2023-04-01T08:38:24;85229.09;;;32.44;20.02
73974;BME280;62336;-26.094;27.994;2023-04-01T08:40:57;85225.99;;;32.30;19.95
73974;BME280;62336;-26.094;27.994;2023-04-01T08:43:19;85225.48;;;32.37;19.91
73974;BME280;62336;-26.094;27.994;2023-04-01T08:48:10;85223.86;;;33.47;19.43
73974;BME280;62336;-26.094;27.994;2023-04-01T08:53:00;85218.15;;;33.19;19.39
73974;BME280;62336;-26.094;27.994;2023-04-01T08:55:30;85218.71;;;32.68;19.77
73974;BME280;62336;-26.094;27.994;2023-04-01T08:57:53;85216.64;;;32.78;19.53
73974;BME280;62336;-26.094;27.994;2023-04-01T09:00:15;85215.66;;;33.04;19.15
73974;BME280;62336;-26.094;27.994;2023-04-01T09:02:51;85216.20;;;33.14;19.28
73974;BME280;62336;-26.094;27.994;2023-04-01T09:07:37;85213.99;;;33.39;19.73
73974;BME280;62336;-26.094;27.994;2023-04-01T09:10:07;85206.81;;;33.77;19.27
73974;BME280;62336;-26.094;27.994;2023-04-01T09:12:26;85207.34;;;33.36;19.20
73974;BME280;62336;-26.094;27.994;2023-04-01T09:14:52;85206.81;;;33.75;18.99
73974;BME280;62336;-26.094;27.994;2023-04-01T09:19:45;85201.07;;;33.71;19.08
73974;BME280;62336;-26.094;27.994;2023-04-01T09:27:02;85196.12;;;33.29;19.68
73974;BME280;62336;-26.094;27.994;2023-04-01T09:29:26;85189.89;;;33.50;18.65
73974;BME280;62336;-26.094;27.994;2023-04-01T09:38:59;85178.95;;;34.37;18.71
73974;BME280;62336;-26.094;27.994;2023-04-01T09:41:29;85175.66;;;34.62;18.33
73974;BME280;62336;-26.094;27.994;2023-04-01T09:44:03;85170.61;;;34.75;17.94
73974;BME280;62336;-26.094;27.994;2023-04-01T09:46:20;85170.86;;;34.60;18.30
73974;BME280;62336;-26.094;27.994;2023-04-01T09:51:15;85165.62;;;34.26;18.41
73974;BME280;62336;-26.094;27.994;2023-04-01T09:53:47;85165.92;;;34.47;18.34
73974;BME280;62336;-26.094;27.994;2023-04-01T10:17:55;85141.76;;;35.07;17.03
73974;BME280;62336;-26.094;27.994;2023-04-01T10:22:59;85141.83;;;34.49;18.11
73974;BME280;62336;-26.094;27.994;2023-04-01T10:37:16;85122.96;;;34.89;17.32
73974;BME280;62336;-26.094;27.994;2023-04-01T10:49:40;85118.78;;;35.60;17.53
73974;BME280;62336;-26.094;27.994;2023-04-01T10:54:19;85115.91;;;35.71;17.36
73974;BME280;62336;-26.094;27.994;2023-04-01T10:56:39;85109.19;;;35.71;16.44
73974;BME280;62336;-26.094;27.994;2023-04-01T11:13:53;85093.53;;;36.12;15.51
73974;BME280;62336;-26.094;27.994;2023-04-01T11:23:22;85082.43;;;36.37;15.82
73974;BME280;62336;-26.094;27.994;2023-04-01T11:25:52;85080.77;;;36.24;15.33
73974;BME280;62336;-26.094;27.994;2023-04-01T11:28:22;85076.39;;;36.12;15.50
73974;BME280;62336;-26.094;27.994;2023-04-01T11:30:49;85077.96;;;36.53;14.87
73974;BME280;62336;-26.094;27.994;2023-04-01T11:33:01;85075.26;;;36.65;14.93
73974;BME280;62336;-26.094;27.994;2023-04-01T11:35:34;85071.63;;;36.93;14.97
73974;BME280;62336;-26.094;27.994;2023-04-01T11:37:53;85075.41;;;36.72;15.03
73974;BME280;62336;-26.094;27.994;2023-04-01T11:40:20;85075.15;;;36.57;14.52
73974;BME280;62336;-26.094;27.994;2023-04-01T11:42:45;85068.90;;;36.60;14.43
73974;BME280;62336;-26.094;27.994;2023-04-01T11:45:16;85063.30;;;36.30;15.43
73974;BME280;62336;-26.094;27.994;2023-04-01T11:59:49;85051.76;;;37.09;14.79
73974;BME280;62336;-26.094;27.994;2023-04-01T12:02:10;85052.69;;;36.88;14.72
73974;BME280;62336;-26.094;27.994;2023-04-01T12:04:47;85051.68;;;36.64;14.84
73974;BME280;62336;-26.094;27.994;2023-04-01T12:07:01;85055.00;;;36.71;14.77
73974;BME280;62336;-26.094;27.994;2023-04-01T12:09:25;85057.33;;;36.57;14.14
73974;BME280;62336;-26.094;27.994;2023-04-01T12:11:52;85053.47;;;37.45;13.51
73974;BME280;62336;-26.094;27.994;2023-04-01T12:14:16;85045.31;;;37.31;14.57
73974;BME280;62336;-26.094;27.994;2023-04-01T12:16:45;85048.52;;;37.37;14.98
73974;BME280;62336;-26.094;27.994;2023-04-01T12:19:09;85053.42;;;37.41;14.24
73974;BME280;62336;-26.094;27.994;2023-04-01T12:21:34;85053.54;;;37.25;15.10
73974;BME280;62336;-26.094;27.994;2023-04-01T12:24:06;85057.62;;;37.71;14.97
73974;BME280;62336;-26.094;27.994;2023-04-01T12:26:31;85051.10;;;36.90;14.85
73974;BME280;62336;-26.094;27.994;2023-04-01T12:28:57;85050.31;;;37.23;14.82
73974;BME280;62336;-26.094;27.994;2023-04-01T12:31:18;85048.70;;;36.81;15.75
73974;BME280;62336;-26.094;27.994;2023-04-01T12:33:46;85052.77;;;36.79;14.69
73974;BME280;62336;-26.094;27.994;2023-04-01T12:36:10;85050.48;;;36.62;14.95
73974;BME280;62336;-26.094;27.994;2023-04-01T12:38:34;85045.25;;;36.61;15.38
73974;BME280;62336;-26.094;27.994;2023-04-01T12:41:05;85050.40;;;36.70;15.52
73974;BME280;62336;-26.094;27.994;2023-04-01T12:43:34;85045.04;;;37.31;15.13
73974;BME280;62336;-26.094;27.994;2023-04-01T12:45:52;85047.97;;;36.79;15.03
73974;BME280;62336;-26.094;27.994;2023-04-01T12:48:29;85046.27;;;37.20;14.95
73974;BME280;62336;-26.094;27.994;2023-04-01T12:53:14;85043.80;;;37.01;15.06
73974;BME280;62336;-26.094;27.994;2023-04-01T12:55:36;85043.35;;;36.35;14.71
73974;BME280;62336;-26.094;27.994;2023-04-01T12:58:06;85041.58;;;36.42;15.08
73974;BME280;62336;-26.094;27.994;2023-04-01T13:00:32;85041.40;;;36.71;14.83
73974;BME280;62336;-26.094;27.994;2023-04-01T13:02:54;85038.12;;;37.21;14.73
73974;BME280;62336;-26.094;27.994;2023-04-01T13:05:24;85033.00;;;37.09;15.13
73974;BME280;62336;-26.094;27.994;2023-04-01T13:07:46;85035.45;;;36.90;14.75
73974;BME280;62336;-26.094;27.994;2023-04-01T13:10:08;85037.23;;;36.55;15.30
73974;BME280;62336;-26.094;27.994;2023-04-01T13:12:37;85037.19;;;36.69;15.29
73974;BME280;62336;-26.094;27.994;2023-04-01T13:15:07;85032.86;;;36.23;15.14
73974;BME280;62336;-26.094;27.994;2023-04-01T13:17:22;85032.93;;;37.02;15.07
73974;BME280;62336;-26.094;27.994;2023-04-01T13:19:47;85028.33;;;37.19;14.41
73974;BME280;62336;-26.094;27.994;2023-04-01T13:22:11;85029.07;;;37.25;14.35
73974;BME280;62336;-26.094;27.994;2023-04-01T13:24:44;85030.55;;;37.01;14.90
73974;BME280;62336;-26.094;27.994;2023-04-01T13:27:07;85030.25;;;36.82;13.96
73974;BME280;62336;-26.094;27.994;2023-04-01T13:29:29;85031.12;;;37.50;14.01
73974;BME280;62336;-26.094;27.994;2023-04-01T13:32:05;85029.48;;;37.26;14.16
73974;BME280;62336;-26.094;27.994;2023-04-01T13:34:28;85027.62;;;37.31;14.51
73974;BME280;62336;-26.094;27.994;2023-04-01T13:36:52;85023.10;;;37.00;14.32
73974;BME280;62336;-26.094;27.994;2023-04-01T13:39:19;85026.75;;;37.22;14.33
73974;BME280;62336;-26.094;27.994;2023-04-01T13:41:52;85022.95;;;36.93;14.10
73974;BME280;62336;-26.094;27.994;2023-04-01T13:44:09;85022.81;;;37.68;14.10
73974;BME280;62336;-26.094;27.994;2023-04-01T13:46:38;85022.21;;;37.41;14.72
73974;BME280;62336;-26.094;27.994;2023-04-01T13:49:05;85023.63;;;37.38;14.42
73974;BME280;62336;-26.094;27.994;2023-04-01T13:56:16;85026.49;;;37.37;14.22
73974;BME280;62336;-26.094;27.994;2023-04-01T14:01:05;85025.46;;;36.94;14.23
73974;BME280;62336;-26.094;27.994;2023-04-01T14:03:32;85024.87;;;36.81;14.16
73974;BME280;62336;-26.094;27.994;2023-04-01T14:06:03;85029.90;;;37.07;14.34
73974;BME280;62336;-26.094;27.994;2023-04-01T14:08:27;85032.05;;;36.34;14.53
73974;BME280;62336;-26.094;27.994;2023-04-01T14:10:46;85035.27;;;36.09;14.92
73974;BME280;62336;-26.094;27.994;2023-04-01T14:13:15;85032.48;;;36.82;14.60
73974;BME280;62336;-26.094;27.994;2023-04-01T14:15:42;85031.75;;;36.16;14.91
73974;BME280;62336;-26.094;27.994;2023-04-01T14:18:15;85030.76;;;36.89;14.13
73974;BME280;62336;-26.094;27.994;2023-04-01T14:20:34;85032.24;;;36.52;14.61
73974;BME280;62336;-26.094;27.994;2023-04-01T14:23:04;85030.68;;;36.90;14.07
73974;BME280;62336;-26.094;27.994;2023-04-01T14:25:30;85035.65;;;36.65;14.18
73974;BME280;62336;-26.094;27.994;2023-04-01T14:27:50;85032.14;;;36.66;14.28
73974;BME280;62336;-26.094;27.994;2023-04-01T14:30:24;85033.92;;;36.82;14.63
73974;BME280;62336;-26.094;27.994;2023-04-01T14:32:41;85031.54;;;36.38;14.75
73974;BME280;62336;-26.094;27.994;2023-04-01T14:35:13;85033.39;;;37.03;14.42
73974;BME280;62336;-26.094;27.994;2023-04-01T14:37:35;85033.40;;;36.43;15.17
73974;BME280;62336;-26.094;27.994;2023-04-01T14:44:57;85039.76;;;36.69;14.18